Modena, NY (12548)

12:50 PM EDT on June 30, 2015 (GMT -0400)
Highgait Farm | | Change Station
CLOSE
Current Station
Personal Weather Station
Location: Clintondale, NY
Elevation: 715 ft
Nearby Weather Stations

Elev 715 ft 41.67 °N, 74.06 °W | Updated 13 minutes ago

Overcast
Overcast
72.5 °F
Feels Like 73 °F
N
0.0
Wind Variable Wind from West

Today
High -- | Low -- °F
--% Chance of Precip.
Yesterday
High -- | Low -- °F
Precip. -- in
5:25 AM 8:34 PM
Waxing Gibbous, 98% visible
Pressure 29.97 in
Visibility 10.0 miles
Clouds Mostly Cloudy 5000 ft
Overcast 10000 ft
Heat Index 73 °F
Dew Point 66 °F
Humidity 80%
Rainfall 0.00 in
Snow Depth Not available.
UV 3 out of 12
Pollen 3.40 out of 12
Air Quality Not available.
Flu Activity Sporadic
METAR KSWF 301645Z 10006KT 10SM -RA BKN050 OVC100 22/18 A2997

More Conditions Fewer Conditions

Pressure 29.97 in
Visibility 10.0 miles
Clouds Mostly Cloudy 5000 ft
Overcast 10000 ft
Heat Index 73 °F
Dew Point 66 °F
Humidity 80%
Rainfall 0.00 in
Snow Depth Not available.
UV 3 out of 12
Pollen 3.40 out of 12
Air Quality Not available.
Flu Activity Sporadic
METAR KSWF 301645Z 10006KT 10SM -RA BKN050 OVC100 22/18 A2997

More Conditions Fewer Conditions

10-Day Weather Forecast

×

Almanac

Astronomy

Jun. 30, 2015 Rise Set
Actual Time
Civil Twilight
Nautical Twilight
Astronomical Twilight
Moon
Length of Visible Light
Length of Day
Tomorrow will be .
, % of the Moon is Illuminated

Today's Extremes

State Highs State Lows

Community

WunderPhotos

Upload Photos

1,834,038 photos uploaded!

WunderBlogs® & News

Nearby

Air Quality

  Air Quality AQ Index Pollutant
Not available.

Snow Depth

Station Depth Elevation

Earthquake Activity

City Distance Mag. Time & Date
Minimum magnitude displayed is 2.5.

Coastal Water Temperatures

Place Temperature

Stations

Nearby Weather Stations

Station Location Temp. Windchill Dew Point Humidity Wind Precip. Elev Updated Type